sensor_id;sensor_type;location;lat;lon;timestamp;temperature;humidity
3876;DHT22;1953;51.222;6.624;2024-02-04T00:00:53;11.60;1.00
3876;DHT22;1953;51.222;6.624;2024-02-04T00:05:36;11.60;1.00
3876;DHT22;1953;51.222;6.624;2024-02-04T00:10:19;11.60;1.00
3876;DHT22;1953;51.222;6.624;2024-02-04T00:15:01;11.50;1.00
3876;DHT22;1953;51.222;6.624;2024-02-04T00:21:01;11.50;1.00
3876;DHT22;1953;51.222;6.624;2024-02-04T00:25:44;11.40;1.00
3876;DHT22;1953;51.222;6.624;2024-02-04T00:30:26;11.40;1.00
3876;DHT22;1953;51.222;6.624;2024-02-04T00:35:09;11.40;1.00
3876;DHT22;1953;51.222;6.624;2024-02-04T00:39:53;11.30;1.00
3876;DHT22;1953;51.222;6.624;2024-02-04T00:44:35;11.40;1.00
3876;DHT22;1953;51.222;6.624;2024-02-04T00:49:18;11.40;1.00
3876;DHT22;1953;51.222;6.624;2024-02-04T00:54:00;11.40;1.00
3876;DHT22;1953;51.222;6.624;2024-02-04T00:58:44;11.40;1.00
3876;DHT22;1953;51.222;6.624;2024-02-04T01:03:27;11.40;1.00
3876;DHT22;1953;51.222;6.624;2024-02-04T01:08:09;11.40;1.00
3876;DHT22;1953;51.222;6.624;2024-02-04T01:12:51;11.40;1.00
3876;DHT22;1953;51.222;6.624;2024-02-04T01:17:35;11.40;1.00
3876;DHT22;1953;51.222;6.624;2024-02-04T01:22:18;11.40;1.00
3876;DHT22;1953;51.222;6.624;2024-02-04T01:27:00;11.40;1.00
3876;DHT22;1953;51.222;6.624;2024-02-04T01:31:43;11.80;1.00
3876;DHT22;1953;51.222;6.624;2024-02-04T01:36:27;11.40;1.00
3876;DHT22;1953;51.222;6.624;2024-02-04T01:41:09;11.40;1.00
3876;DHT22;1953;51.222;6.624;2024-02-04T01:45:52;11.40;1.00
3876;DHT22;1953;51.222;6.624;2024-02-04T01:50:34;11.40;1.00
3876;DHT22;1953;51.222;6.624;2024-02-04T01:55:18;11.50;1.00
3876;DHT22;1953;51.222;6.624;2024-02-04T02:00:01;11.50;1.00
3876;DHT22;1953;51.222;6.624;2024-02-04T02:04:46;11.50;1.00
3876;DHT22;1953;51.222;6.624;2024-02-04T02:09:29;11.50;1.00
3876;DHT22;1953;51.222;6.624;2024-02-04T02:14:26;11.50;1.00
3876;DHT22;1953;51.222;6.624;2024-02-04T02:19:19;11.50;1.00
3876;DHT22;1953;51.222;6.624;2024-02-04T02:24:10;11.50;1.00
3876;DHT22;1953;51.222;6.624;2024-02-04T02:28:54;11.60;1.00
3876;DHT22;1953;51.222;6.624;2024-02-04T02:33:36;11.60;1.00
3876;DHT22;1953;51.222;6.624;2024-02-04T02:38:23;11.60;1.00
3876;DHT22;1953;51.222;6.624;2024-02-04T02:43:08;11.60;1.00
3876;DHT22;1953;51.222;6.624;2024-02-04T02:47:54;11.60;1.00
3876;DHT22;1953;51.222;6.624;2024-02-04T02:52:37;11.60;1.00
3876;DHT22;1953;51.222;6.624;2024-02-04T02:57:19;11.70;1.00
3876;DHT22;1953;51.222;6.624;2024-02-04T03:02:02;11.70;1.00
3876;DHT22;1953;51.222;6.624;2024-02-04T03:06:45;11.70;1.00
3876;DHT22;1953;51.222;6.624;2024-02-04T03:11:28;11.70;1.00
3876;DHT22;1953;51.222;6.624;2024-02-04T03:16:11;12.60;1.00
3876;DHT22;1953;51.222;6.624;2024-02-04T03:20:53;11.70;1.00
3876;DHT22;1953;51.222;6.624;2024-02-04T03:25:37;11.60;1.00
3876;DHT22;1953;51.222;6.624;2024-02-04T03:30:20;11.70;1.00
3876;DHT22;1953;51.222;6.624;2024-02-04T03:35:03;11.70;1.00
3876;DHT22;1953;51.222;6.624;2024-02-04T03:39:45;11.70;1.00
3876;DHT22;1953;51.222;6.624;2024-02-04T03:44:29;11.80;1.00
3876;DHT22;1953;51.222;6.624;2024-02-04T03:49:12;11.70;1.00
3876;DHT22;1953;51.222;6.624;2024-02-04T03:53:54;11.80;1.00
3876;DHT22;1953;51.222;6.624;2024-02-04T03:58:37;11.80;1.00
3876;DHT22;1953;51.222;6.624;2024-02-04T04:03:21;11.80;1.00
3876;DHT22;1953;51.222;6.624;2024-02-04T04:08:03;11.80;1.00
3876;DHT22;1953;51.222;6.624;2024-02-04T04:12:46;11.90;1.00
3876;DHT22;1953;51.222;6.624;2024-02-04T04:17:29;11.80;1.00
3876;DHT22;1953;51.222;6.624;2024-02-04T04:22:12;11.80;1.00
3876;DHT22;1953;51.222;6.624;2024-02-04T04:26:55;11.80;1.00
3876;DHT22;1953;51.222;6.624;2024-02-04T04:31:37;11.90;1.00
3876;DHT22;1953;51.222;6.624;2024-02-04T04:36:20;11.80;1.00
3876;DHT22;1953;51.222;6.624;2024-02-04T04:41:04;11.90;1.00
3876;DHT22;1953;51.222;6.624;2024-02-04T04:45:46;11.80;1.00
3876;DHT22;1953;51.222;6.624;2024-02-04T04:50:29;11.90;1.00
3876;DHT22;1953;51.222;6.624;2024-02-04T04:55:12;11.90;1.00
3876;DHT22;1953;51.222;6.624;2024-02-04T04:59:56;11.90;1.00
3876;DHT22;1953;51.222;6.624;2024-02-04T05:04:42;11.90;1.00
3876;DHT22;1953;51.222;6.624;2024-02-04T05:09:25;12.00;1.00
3876;DHT22;1953;51.222;6.624;2024-02-04T05:14:07;12.00;1.00
3876;DHT22;1953;51.222;6.624;2024-02-04T05:18:51;12.00;1.00
3876;DHT22;1953;51.222;6.624;2024-02-04T05:23:33;12.00;1.00
3876;DHT22;1953;51.222;6.624;2024-02-04T05:28:16;11.90;1.00
3876;DHT22;1953;51.222;6.624;2024-02-04T05:32:58;11.90;1.00
3876;DHT22;1953;51.222;6.624;2024-02-04T05:37:42;12.00;1.00
3876;DHT22;1953;51.222;6.624;2024-02-04T05:42:25;12.00;1.00
3876;DHT22;1953;51.222;6.624;2024-02-04T05:47:07;11.90;1.00
3876;DHT22;1953;51.222;6.624;2024-02-04T05:51:50;12.00;1.00
3876;DHT22;1953;51.222;6.624;2024-02-04T05:56:34;12.00;1.00
3876;DHT22;1953;51.222;6.624;2024-02-04T06:01:16;12.00;1.00
3876;DHT22;1953;51.222;6.624;2024-02-04T06:05:59;12.00;1.00
3876;DHT22;1953;51.222;6.624;2024-02-04T06:10:41;11.90;1.00
3876;DHT22;1953;51.222;6.624;2024-02-04T06:15:26;12.00;1.00
3876;DHT22;1953;51.222;6.624;2024-02-04T06:20:09;12.00;1.00
3876;DHT22;1953;51.222;6.624;2024-02-04T06:24:51;11.90;1.00
3876;DHT22;1953;51.222;6.624;2024-02-04T06:29:34;11.90;1.00
3876;DHT22;1953;51.222;6.624;2024-02-04T06:34:19;11.90;1.00
3876;DHT22;1953;51.222;6.624;2024-02-04T06:39:02;11.90;1.00
3876;DHT22;1953;51.222;6.624;2024-02-04T06:43:44;11.90;1.00
3876;DHT22;1953;51.222;6.624;2024-02-04T06:48:27;11.90;1.00
3876;DHT22;1953;51.222;6.624;2024-02-04T06:53:11;11.90;1.00
3876;DHT22;1953;51.222;6.624;2024-02-04T06:57:54;11.90;1.00
3876;DHT22;1953;51.222;6.624;2024-02-04T07:02:36;11.90;1.00
3876;DHT22;1953;51.222;6.624;2024-02-04T07:07:19;11.90;1.00
3876;DHT22;1953;51.222;6.624;2024-02-04T07:12:03;11.90;1.00
3876;DHT22;1953;51.222;6.624;2024-02-04T07:16:46;11.90;1.00
3876;DHT22;1953;51.222;6.624;2024-02-04T07:21:28;11.70;1.00
3876;DHT22;1953;51.222;6.624;2024-02-04T07:26:11;11.80;1.00
3876;DHT22;1953;51.222;6.624;2024-02-04T07:30:55;11.80;1.00
3876;DHT22;1953;51.222;6.624;2024-02-04T07:35:37;11.80;1.00
3876;DHT22;1953;51.222;6.624;2024-02-04T07:40:20;11.80;1.00
3876;DHT22;1953;51.222;6.624;2024-02-04T07:45:03;11.80;1.00
3876;DHT22;1953;51.222;6.624;2024-02-04T07:49:54;11.80;1.00
3876;DHT22;1953;51.222;6.624;2024-02-04T07:54:37;11.80;1.00
3876;DHT22;1953;51.222;6.624;2024-02-04T07:59:20;11.80;1.00
3876;DHT22;1953;51.222;6.624;2024-02-04T08:04:03;11.80;1.00
3876;DHT22;1953;51.222;6.624;2024-02-04T08:08:48;11.90;1.00
3876;DHT22;1953;51.222;6.624;2024-02-04T08:13:31;11.90;1.00
3876;DHT22;1953;51.222;6.624;2024-02-04T08:17:46;11.90;1.00
3876;DHT22;1953;51.222;6.624;2024-02-04T08:22:29;11.90;1.00
3876;DHT22;1953;51.222;6.624;2024-02-04T08:27:13;11.80;1.00
3876;DHT22;1953;51.222;6.624;2024-02-04T08:31:57;11.80;1.00
3876;DHT22;1953;51.222;6.624;2024-02-04T08:36:39;11.80;1.00
3876;DHT22;1953;51.222;6.624;2024-02-04T08:41:22;11.90;1.00
3876;DHT22;1953;51.222;6.624;2024-02-04T08:46:06;11.90;1.00
3876;DHT22;1953;51.222;6.624;2024-02-04T08:50:49;13.00;1.00
3876;DHT22;1953;51.222;6.624;2024-02-04T08:55:31;12.10;1.00
3876;DHT22;1953;51.222;6.624;2024-02-04T09:00:15;12.10;1.00
3876;DHT22;1953;51.222;6.624;2024-02-04T09:04:58;12.10;1.00
3876;DHT22;1953;51.222;6.624;2024-02-04T09:09:41;12.10;1.00
3876;DHT22;1953;51.222;6.624;2024-02-04T09:14:24;12.10;1.00
3876;DHT22;1953;51.222;6.624;2024-02-04T09:19:06;12.10;1.00
3876;DHT22;1953;51.222;6.624;2024-02-04T09:23:50;12.00;1.00
3876;DHT22;1953;51.222;6.624;2024-02-04T09:28:33;12.00;1.00
3876;DHT22;1953;51.222;6.624;2024-02-04T09:33:16;12.00;1.00
3876;DHT22;1953;51.222;6.624;2024-02-04T09:37:58;12.10;1.00
3876;DHT22;1953;51.222;6.624;2024-02-04T09:42:42;12.20;1.00
3876;DHT22;1953;51.222;6.624;2024-02-04T09:47:25;12.20;1.00
3876;DHT22;1953;51.222;6.624;2024-02-04T09:52:09;12.30;1.00
3876;DHT22;1953;51.222;6.624;2024-02-04T09:56:52;12.30;1.00
3876;DHT22;1953;51.222;6.624;2024-02-04T10:01:36;12.30;1.00
3876;DHT22;1953;51.222;6.624;2024-02-04T10:06:19;12.40;1.00
3876;DHT22;1953;51.222;6.624;2024-02-04T10:11:01;12.30;1.00
3876;DHT22;1953;51.222;6.624;2024-02-04T10:15:44;12.50;1.00
3876;DHT22;1953;51.222;6.624;2024-02-04T10:20:28;12.60;1.00
3876;DHT22;1953;51.222;6.624;2024-02-04T10:25:11;12.60;1.00
3876;DHT22;1953;51.222;6.624;2024-02-04T10:29:54;12.50;1.00
3876;DHT22;1953;51.222;6.624;2024-02-04T10:34:37;12.40;1.00
3876;DHT22;1953;51.222;6.624;2024-02-04T10:39:21;12.40;1.00
3876;DHT22;1953;51.222;6.624;2024-02-04T10:44:04;12.50;1.00
3876;DHT22;1953;51.222;6.624;2024-02-04T10:48:55;12.50;1.00
3876;DHT22;1953;51.222;6.624;2024-02-04T10:53:40;12.60;1.00
3876;DHT22;1953;51.222;6.624;2024-02-04T10:58:25;12.70;1.00
3876;DHT22;1953;51.222;6.624;2024-02-04T11:03:08;12.60;1.00
3876;DHT22;1953;51.222;6.624;2024-02-04T11:07:52;12.60;1.00
3876;DHT22;1953;51.222;6.624;2024-02-04T11:12:36;12.60;1.00
3876;DHT22;1953;51.222;6.624;2024-02-04T11:17:50;12.50;1.00
3876;DHT22;1953;51.222;6.624;2024-02-04T11:22:52;12.40;1.00
3876;DHT22;1953;51.222;6.624;2024-02-04T11:27:39;12.50;1.00
3876;DHT22;1953;51.222;6.624;2024-02-04T11:32:24;12.50;1.00
3876;DHT22;1953;51.222;6.624;2024-02-04T11:37:16;12.60;1.00
3876;DHT22;1953;51.222;6.624;2024-02-04T11:41:59;12.60;1.00
3876;DHT22;1953;51.222;6.624;2024-02-04T11:46:46;12.60;1.00
3876;DHT22;1953;51.222;6.624;2024-02-04T11:51:28;12.60;1.00
3876;DHT22;1953;51.222;6.624;2024-02-04T11:56:13;12.60;1.00
3876;DHT22;1953;51.222;6.624;2024-02-04T12:00:56;12.60;1.00
3876;DHT22;1953;51.222;6.624;2024-02-04T12:05:40;12.60;1.00
3876;DHT22;1953;51.222;6.624;2024-02-04T12:10:23;12.70;1.00
3876;DHT22;1953;51.222;6.624;2024-02-04T12:15:07;12.60;1.00
3876;DHT22;1953;51.222;6.624;2024-02-04T12:22:01;12.70;1.00
3876;DHT22;1953;51.222;6.624;2024-02-04T12:26:49;12.60;1.00
3876;DHT22;1953;51.222;6.624;2024-02-04T12:31:32;12.60;1.00
3876;DHT22;1953;51.222;6.624;2024-02-04T12:36:15;12.50;1.00
3876;DHT22;1953;51.222;6.624;2024-02-04T12:41:02;12.50;1.00
3876;DHT22;1953;51.222;6.624;2024-02-04T12:45:45;12.50;1.00
3876;DHT22;1953;51.222;6.624;2024-02-04T12:50:28;12.50;1.00
3876;DHT22;1953;51.222;6.624;2024-02-04T12:55:19;12.60;1.00
3876;DHT22;1953;51.222;6.624;2024-02-04T13:00:08;12.60;1.00
3876;DHT22;1953;51.222;6.624;2024-02-04T13:04:51;12.50;1.00
3876;DHT22;1953;51.222;6.624;2024-02-04T13:09:34;12.60;1.00
3876;DHT22;1953;51.222;6.624;2024-02-04T13:14:16;12.60;1.00
3876;DHT22;1953;51.222;6.624;2024-02-04T13:19:00;12.60;1.00
3876;DHT22;1953;51.222;6.624;2024-02-04T13:23:43;12.60;1.00
3876;DHT22;1953;51.222;6.624;2024-02-04T13:28:25;12.60;1.00
3876;DHT22;1953;51.222;6.624;2024-02-04T13:33:08;12.60;1.00
3876;DHT22;1953;51.222;6.624;2024-02-04T13:37:52;12.70;1.00
3876;DHT22;1953;51.222;6.624;2024-02-04T13:42:36;12.70;1.00
3876;DHT22;1953;51.222;6.624;2024-02-04T13:47:18;12.60;1.00
3876;DHT22;1953;51.222;6.624;2024-02-04T13:52:01;12.60;1.00
3876;DHT22;1953;51.222;6.624;2024-02-04T13:56:45;12.60;1.00
3876;DHT22;1953;51.222;6.624;2024-02-04T14:01:27;12.50;1.00
3876;DHT22;1953;51.222;6.624;2024-02-04T14:06:10;12.50;1.00
3876;DHT22;1953;51.222;6.624;2024-02-04T14:10:54;12.60;1.00
3876;DHT22;1953;51.222;6.624;2024-02-04T14:15:37;12.60;1.00
3876;DHT22;1953;51.222;6.624;2024-02-04T14:20:20;12.60;1.00
3876;DHT22;1953;51.222;6.624;2024-02-04T14:25:04;12.70;1.00
3876;DHT22;1953;51.222;6.624;2024-02-04T14:29:24;12.60;1.00
3876;DHT22;1953;51.222;6.624;2024-02-04T14:34:09;12.60;1.00
3876;DHT22;1953;51.222;6.624;2024-02-04T14:38:52;12.70;1.00
3876;DHT22;1953;51.222;6.624;2024-02-04T14:43:35;12.70;1.00
3876;DHT22;1953;51.222;6.624;2024-02-04T14:48:18;12.70;1.00
3876;DHT22;1953;51.222;6.624;2024-02-04T14:53:02;12.70;1.00
3876;DHT22;1953;51.222;6.624;2024-02-04T15:03:05;12.70;1.00
3876;DHT22;1953;51.222;6.624;2024-02-04T15:07:48;12.60;1.00
3876;DHT22;1953;51.222;6.624;2024-02-04T15:12:41;12.60;1.00
3876;DHT22;1953;51.222;6.624;2024-02-04T15:17:25;12.60;1.00
3876;DHT22;1953;51.222;6.624;2024-02-04T15:22:08;12.60;1.00
3876;DHT22;1953;51.222;6.624;2024-02-04T15:26:52;12.70;1.00
3876;DHT22;1953;51.222;6.624;2024-02-04T15:31:37;12.60;1.00
3876;DHT22;1953;51.222;6.624;2024-02-04T15:36:20;12.60;1.00
3876;DHT22;1953;51.222;6.624;2024-02-04T15:41:03;12.70;1.00
3876;DHT22;1953;51.222;6.624;2024-02-04T15:45:47;12.60;1.00
3876;DHT22;1953;51.222;6.624;2024-02-04T15:50:32;12.60;1.00
3876;DHT22;1953;51.222;6.624;2024-02-04T15:55:16;12.70;1.00
3876;DHT22;1953;51.222;6.624;2024-02-04T16:00:02;12.60;1.00
3876;DHT22;1953;51.222;6.624;2024-02-04T16:04:52;12.60;1.00
3876;DHT22;1953;51.222;6.624;2024-02-04T16:09:37;12.50;1.00
3876;DHT22;1953;51.222;6.624;2024-02-04T16:14:22;12.50;1.00
3876;DHT22;1953;51.222;6.624;2024-02-04T16:19:06;12.50;1.00
3876;DHT22;1953;51.222;6.624;2024-02-04T16:23:50;12.50;1.00
3876;DHT22;1953;51.222;6.624;2024-02-04T16:28:34;12.50;1.00
3876;DHT22;1953;51.222;6.624;2024-02-04T16:33:16;12.40;1.00
3876;DHT22;1953;51.222;6.624;2024-02-04T16:37:59;12.50;1.00
3876;DHT22;1953;51.222;6.624;2024-02-04T16:42:42;12.50;1.00
3876;DHT22;1953;51.222;6.624;2024-02-04T16:47:26;12.40;1.00
3876;DHT22;1953;51.222;6.624;2024-02-04T16:52:08;12.50;1.00
3876;DHT22;1953;51.222;6.624;2024-02-04T16:56:54;12.40;1.00
3876;DHT22;1953;51.222;6.624;2024-02-04T17:01:36;12.50;1.00
3876;DHT22;1953;51.222;6.624;2024-02-04T17:06:21;12.50;1.00
3876;DHT22;1953;51.222;6.624;2024-02-04T17:11:04;12.50;1.00
3876;DHT22;1953;51.222;6.624;2024-02-04T17:15:48;12.50;1.00
3876;DHT22;1953;51.222;6.624;2024-02-04T17:20:31;12.50;1.00
3876;DHT22;1953;51.222;6.624;2024-02-04T17:25:17;12.50;1.00
3876;DHT22;1953;51.222;6.624;2024-02-04T17:30:05;12.50;1.00
3876;DHT22;1953;51.222;6.624;2024-02-04T17:34:48;12.50;1.00
3876;DHT22;1953;51.222;6.624;2024-02-04T17:39:31;12.50;1.00
3876;DHT22;1953;51.222;6.624;2024-02-04T17:44:15;12.50;1.00
3876;DHT22;1953;51.222;6.624;2024-02-04T17:49:00;12.40;1.00
3876;DHT22;1953;51.222;6.624;2024-02-04T17:53:45;12.40;1.00
3876;DHT22;1953;51.222;6.624;2024-02-04T17:58:28;12.50;1.00
3876;DHT22;1953;51.222;6.624;2024-02-04T18:03:12;12.40;1.00
3876;DHT22;1953;51.222;6.624;2024-02-04T18:07:55;12.40;1.00
3876;DHT22;1953;51.222;6.624;2024-02-04T18:12:37;12.40;1.00
3876;DHT22;1953;51.222;6.624;2024-02-04T18:17:20;12.30;1.00
3876;DHT22;1953;51.222;6.624;2024-02-04T18:22:04;12.30;1.00
3876;DHT22;1953;51.222;6.624;2024-02-04T18:26:47;13.60;1.00
3876;DHT22;1953;51.222;6.624;2024-02-04T18:31:30;12.30;1.00
3876;DHT22;1953;51.222;6.624;2024-02-04T18:36:14;12.30;1.00
3876;DHT22;1953;51.222;6.624;2024-02-04T18:40:58;12.30;1.00
3876;DHT22;1953;51.222;6.624;2024-02-04T18:45:41;12.30;1.00
3876;DHT22;1953;51.222;6.624;2024-02-04T18:50:23;12.30;1.00
3876;DHT22;1953;51.222;6.624;2024-02-04T18:55:07;12.30;1.00
3876;DHT22;1953;51.222;6.624;2024-02-04T18:59:52;12.20;1.00
3876;DHT22;1953;51.222;6.624;2024-02-04T19:04:34;12.20;1.00
3876;DHT22;1953;51.222;6.624;2024-02-04T19:09:17;12.20;1.00
3876;DHT22;1953;51.222;6.624;2024-02-04T19:13:59;12.00;1.00
3876;DHT22;1953;51.222;6.624;2024-02-04T19:18:43;12.00;1.00
3876;DHT22;1953;51.222;6.624;2024-02-04T19:23:26;12.00;1.00
3876;DHT22;1953;51.222;6.624;2024-02-04T19:28:09;11.90;1.00
3876;DHT22;1953;51.222;6.624;2024-02-04T19:32:52;11.90;1.00
3876;DHT22;1953;51.222;6.624;2024-02-04T19:37:36;11.80;1.00
3876;DHT22;1953;51.222;6.624;2024-02-04T19:42:19;11.90;1.00
3876;DHT22;1953;51.222;6.624;2024-02-04T19:47:01;11.90;1.00
3876;DHT22;1953;51.222;6.624;2024-02-04T19:51:44;11.80;1.00
3876;DHT22;1953;51.222;6.624;2024-02-04T19:56:27;11.70;1.00
3876;DHT22;1953;51.222;6.624;2024-02-04T20:01:10;11.80;1.00
3876;DHT22;1953;51.222;6.624;2024-02-04T20:05:52;11.80;1.00
3876;DHT22;1953;51.222;6.624;2024-02-04T20:10:35;11.80;1.00
3876;DHT22;1953;51.222;6.624;2024-02-04T20:15:19;11.80;1.00
3876;DHT22;1953;51.222;6.624;2024-02-04T20:20:08;11.80;1.00
3876;DHT22;1953;51.222;6.624;2024-02-04T20:24:50;11.80;1.00
3876;DHT22;1953;51.222;6.624;2024-02-04T20:29:33;11.80;1.00
3876;DHT22;1953;51.222;6.624;2024-02-04T20:34:17;11.90;1.00
3876;DHT22;1953;51.222;6.624;2024-02-04T20:38:59;11.90;1.00
3876;DHT22;1953;51.222;6.624;2024-02-04T20:43:42;11.90;1.00
3876;DHT22;1953;51.222;6.624;2024-02-04T20:48:25;11.80;1.00
3876;DHT22;1953;51.222;6.624;2024-02-04T20:53:09;11.90;1.00
3876;DHT22;1953;51.222;6.624;2024-02-04T20:57:51;11.90;1.00
3876;DHT22;1953;51.222;6.624;2024-02-04T21:02:34;12.00;1.00
3876;DHT22;1953;51.222;6.624;2024-02-04T21:07:16;11.90;1.00
3876;DHT22;1953;51.222;6.624;2024-02-04T21:12:00;12.00;1.00
3876;DHT22;1953;51.222;6.624;2024-02-04T21:16:43;12.10;1.00
3876;DHT22;1953;51.222;6.624;2024-02-04T21:21:25;12.10;1.00
3876;DHT22;1953;51.222;6.624;2024-02-04T21:26:08;12.10;1.00
3876;DHT22;1953;51.222;6.624;2024-02-04T21:30:52;12.10;1.00
3876;DHT22;1953;51.222;6.624;2024-02-04T21:35:35;12.10;1.00
3876;DHT22;1953;51.222;6.624;2024-02-04T21:40:19;12.10;1.00
3876;DHT22;1953;51.222;6.624;2024-02-04T21:45:03;12.10;1.00
3876;DHT22;1953;51.222;6.624;2024-02-04T21:49:48;12.10;1.00
3876;DHT22;1953;51.222;6.624;2024-02-04T21:54:31;12.20;1.00
3876;DHT22;1953;51.222;6.624;2024-02-04T21:59:13;12.20;1.00
3876;DHT22;1953;51.222;6.624;2024-02-04T22:03:57;12.20;1.00
3876;DHT22;1953;51.222;6.624;2024-02-04T22:08:41;12.20;1.00
3876;DHT22;1953;51.222;6.624;2024-02-04T22:13:23;12.20;1.00
3876;DHT22;1953;51.222;6.624;2024-02-04T22:18:06;12.20;1.00
3876;DHT22;1953;51.222;6.624;2024-02-04T22:22:48;12.20;1.00
3876;DHT22;1953;51.222;6.624;2024-02-04T22:27:32;12.20;1.00
3876;DHT22;1953;51.222;6.624;2024-02-04T22:32:16;12.20;1.00
3876;DHT22;1953;51.222;6.624;2024-02-04T22:36:58;12.20;1.00
3876;DHT22;1953;51.222;6.624;2024-02-04T22:41:41;12.30;1.00
3876;DHT22;1953;51.222;6.624;2024-02-04T22:46:25;12.20;1.00
3876;DHT22;1953;51.222;6.624;2024-02-04T22:51:07;12.20;1.00
3876;DHT22;1953;51.222;6.624;2024-02-04T22:55:50;12.20;1.00
3876;DHT22;1953;51.222;6.624;2024-02-04T23:00:32;12.20;1.00
3876;DHT22;1953;51.222;6.624;2024-02-04T23:05:16;12.20;1.00
3876;DHT22;1953;51.222;6.624;2024-02-04T23:09:59;12.20;1.00
3876;DHT22;1953;51.222;6.624;2024-02-04T23:14:41;12.30;1.00
3876;DHT22;1953;51.222;6.624;2024-02-04T23:19:24;12.30;1.00
3876;DHT22;1953;51.222;6.624;2024-02-04T23:24:08;12.30;1.00
3876;DHT22;1953;51.222;6.624;2024-02-04T23:28:50;12.30;1.00
3876;DHT22;1953;51.222;6.624;2024-02-04T23:33:32;12.40;1.00
3876;DHT22;1953;51.222;6.624;2024-02-04T23:38:15;12.30;1.00
3876;DHT22;1953;51.222;6.624;2024-02-04T23:42:59;12.40;1.00
3876;DHT22;1953;51.222;6.624;2024-02-04T23:47:41;12.40;1.00
3876;DHT22;1953;51.222;6.624;2024-02-04T23:52:24;12.40;1.00
3876;DHT22;1953;51.222;6.624;2024-02-04T23:57:08;12.40;1.00
